sensor_id;sensor_type;location;lat;lon;timestamp;P1;durP1;ratioP1;P2;durP2;ratioP2
13051;SDS011;6592;47.484;9.726;2022-10-31T00:01:55;7.10;;;3.00;;
13051;SDS011;6592;47.484;9.726;2022-10-31T00:04:27;7.93;;;2.97;;
13051;SDS011;6592;47.484;9.726;2022-10-31T00:06:58;6.80;;;3.28;;
13051;SDS011;6592;47.484;9.726;2022-10-31T00:09:27;8.55;;;3.15;;
13051;SDS011;6592;47.484;9.726;2022-10-31T00:11:57;7.22;;;3.30;;
13051;SDS011;6592;47.484;9.726;2022-10-31T00:14:26;5.68;;;2.63;;
13051;SDS011;6592;47.484;9.726;2022-10-31T00:17:10;6.50;;;2.88;;
13051;SDS011;6592;47.484;9.726;2022-10-31T00:25:28;6.30;;;2.58;;
13051;SDS011;6592;47.484;9.726;2022-10-31T00:28:02;9.30;;;2.80;;
13051;SDS011;6592;47.484;9.726;2022-10-31T00:33:02;4.45;;;2.35;;
13051;SDS011;6592;47.484;9.726;2022-10-31T00:35:32;7.57;;;2.85;;
13051;SDS011;6592;47.484;9.726;2022-10-31T00:38:02;6.75;;;2.78;;
13051;SDS011;6592;47.484;9.726;2022-10-31T00:40:30;7.68;;;2.63;;
13051;SDS011;6592;47.484;9.726;2022-10-31T00:43:00;6.85;;;3.28;;
13051;SDS011;6592;47.484;9.726;2022-10-31T00:45:29;4.97;;;2.60;;
13051;SDS011;6592;47.484;9.726;2022-10-31T00:47:58;5.60;;;2.63;;
13051;SDS011;6592;47.484;9.726;2022-10-31T00:50:27;6.75;;;2.67;;
13051;SDS011;6592;47.484;9.726;2022-10-31T00:52:56;10.55;;;2.58;;
13051;SDS011;6592;47.484;9.726;2022-10-31T00:55:38;7.88;;;2.80;;
13051;SDS011;6592;47.484;9.726;2022-10-31T00:58:06;5.78;;;2.45;;
13051;SDS011;6592;47.484;9.726;2022-10-31T01:00:34;8.18;;;2.95;;
13051;SDS011;6592;47.484;9.726;2022-10-31T01:03:03;6.63;;;2.55;;
13051;SDS011;6592;47.484;9.726;2022-10-31T01:05:32;5.70;;;2.45;;
13051;SDS011;6592;47.484;9.726;2022-10-31T01:08:01;6.53;;;2.17;;
13051;SDS011;6592;47.484;9.726;2022-10-31T01:10:30;3.95;;;2.17;;
13051;SDS011;6592;47.484;9.726;2022-10-31T01:13:02;5.43;;;2.55;;
13051;SDS011;6592;47.484;9.726;2022-10-31T01:15:34;7.43;;;2.20;;
13051;SDS011;6592;47.484;9.726;2022-10-31T01:18:02;7.10;;;2.33;;
13051;SDS011;6592;47.484;9.726;2022-10-31T01:20:30;6.30;;;2.70;;
13051;SDS011;6592;47.484;9.726;2022-10-31T01:22:59;6.60;;;2.60;;
13051;SDS011;6592;47.484;9.726;2022-10-31T01:25:31;6.13;;;2.42;;
13051;SDS011;6592;47.484;9.726;2022-10-31T01:28:01;7.30;;;2.55;;
13051;SDS011;6592;47.484;9.726;2022-10-31T01:30:30;4.78;;;2.40;;
13051;SDS011;6592;47.484;9.726;2022-10-31T01:33:00;4.90;;;2.35;;
13051;SDS011;6592;47.484;9.726;2022-10-31T01:35:29;4.40;;;2.35;;
13051;SDS011;6592;47.484;9.726;2022-10-31T01:37:57;5.50;;;2.50;;
13051;SDS011;6592;47.484;9.726;2022-10-31T01:40:28;5.43;;;2.78;;
13051;SDS011;6592;47.484;9.726;2022-10-31T01:42:58;5.32;;;2.00;;
13051;SDS011;6592;47.484;9.726;2022-10-31T01:45:31;6.00;;;2.17;;
13051;SDS011;6592;47.484;9.726;2022-10-31T01:48:00;6.50;;;2.28;;
13051;SDS011;6592;47.484;9.726;2022-10-31T01:50:29;7.80;;;2.25;;
13051;SDS011;6592;47.484;9.726;2022-10-31T01:53:01;4.00;;;2.03;;
13051;SDS011;6592;47.484;9.726;2022-10-31T01:55:33;6.70;;;2.20;;
13051;SDS011;6592;47.484;9.726;2022-10-31T01:58:06;4.47;;;2.25;;
13051;SDS011;6592;47.484;9.726;2022-10-31T02:00:38;6.03;;;2.38;;
13051;SDS011;6592;47.484;9.726;2022-10-31T02:03:09;6.43;;;2.88;;
13051;SDS011;6592;47.484;9.726;2022-10-31T02:05:38;5.60;;;2.30;;
13051;SDS011;6592;47.484;9.726;2022-10-31T02:08:07;5.65;;;2.47;;
13051;SDS011;6592;47.484;9.726;2022-10-31T02:10:39;5.15;;;2.33;;
13051;SDS011;6592;47.484;9.726;2022-10-31T02:13:10;7.60;;;2.47;;
13051;SDS011;6592;47.484;9.726;2022-10-31T02:15:42;8.27;;;2.40;;
13051;SDS011;6592;47.484;9.726;2022-10-31T02:18:12;5.10;;;1.80;;
13051;SDS011;6592;47.484;9.726;2022-10-31T02:20:46;4.90;;;2.10;;
13051;SDS011;6592;47.484;9.726;2022-10-31T02:23:39;6.47;;;2.30;;
13051;SDS011;6592;47.484;9.726;2022-10-31T02:26:46;7.80;;;2.10;;
13051;SDS011;6592;47.484;9.726;2022-10-31T02:29:47;5.35;;;2.30;;
13051;SDS011;6592;47.484;9.726;2022-10-31T02:32:39;5.20;;;2.13;;
13051;SDS011;6592;47.484;9.726;2022-10-31T02:35:17;5.90;;;2.40;;
13051;SDS011;6592;47.484;9.726;2022-10-31T02:37:57;4.03;;;1.92;;
13051;SDS011;6592;47.484;9.726;2022-10-31T02:40:35;4.72;;;2.15;;
13051;SDS011;6592;47.484;9.726;2022-10-31T02:43:09;4.47;;;2.28;;
13051;SDS011;6592;47.484;9.726;2022-10-31T02:45:45;4.57;;;1.90;;
13051;SDS011;6592;47.484;9.726;2022-10-31T02:48:22;8.93;;;2.20;;
13051;SDS011;6592;47.484;9.726;2022-10-31T02:50:55;5.07;;;2.17;;
13051;SDS011;6592;47.484;9.726;2022-10-31T02:53:26;6.05;;;2.13;;
13051;SDS011;6592;47.484;9.726;2022-10-31T02:56:00;6.25;;;2.08;;
13051;SDS011;6592;47.484;9.726;2022-10-31T02:58:35;4.78;;;1.95;;
13051;SDS011;6592;47.484;9.726;2022-10-31T03:07:35;4.60;;;1.80;;
13051;SDS011;6592;47.484;9.726;2022-10-31T03:10:16;3.75;;;1.80;;
13051;SDS011;6592;47.484;9.726;2022-10-31T03:12:54;5.68;;;1.77;;
13051;SDS011;6592;47.484;9.726;2022-10-31T03:15:30;6.53;;;1.98;;
13051;SDS011;6592;47.484;9.726;2022-10-31T03:18:03;5.55;;;2.10;;
13051;SDS011;6592;47.484;9.726;2022-10-31T03:20:37;6.35;;;2.00;;
13051;SDS011;6592;47.484;9.726;2022-10-31T03:23:09;5.40;;;1.85;;
13051;SDS011;6592;47.484;9.726;2022-10-31T03:25:41;4.10;;;1.98;;
13051;SDS011;6592;47.484;9.726;2022-10-31T03:28:13;6.03;;;2.33;;
13051;SDS011;6592;47.484;9.726;2022-10-31T03:30:47;5.35;;;2.47;;
13051;SDS011;6592;47.484;9.726;2022-10-31T03:33:21;4.85;;;1.98;;
13051;SDS011;6592;47.484;9.726;2022-10-31T03:35:55;6.32;;;2.00;;
13051;SDS011;6592;47.484;9.726;2022-10-31T03:38:27;7.80;;;1.88;;
13051;SDS011;6592;47.484;9.726;2022-10-31T03:40:58;5.85;;;1.80;;
13051;SDS011;6592;47.484;9.726;2022-10-31T03:43:30;4.72;;;2.00;;
13051;SDS011;6592;47.484;9.726;2022-10-31T03:46:04;3.88;;;2.00;;
13051;SDS011;6592;47.484;9.726;2022-10-31T03:48:33;5.35;;;1.98;;
13051;SDS011;6592;47.484;9.726;2022-10-31T03:51:04;5.10;;;2.08;;
13051;SDS011;6592;47.484;9.726;2022-10-31T03:53:42;4.15;;;1.77;;
13051;SDS011;6592;47.484;9.726;2022-10-31T03:56:22;5.38;;;2.22;;
13051;SDS011;6592;47.484;9.726;2022-10-31T03:58:58;7.47;;;2.38;;
13051;SDS011;6592;47.484;9.726;2022-10-31T04:01:30;5.55;;;2.33;;
13051;SDS011;6592;47.484;9.726;2022-10-31T04:04:05;3.70;;;1.67;;
13051;SDS011;6592;47.484;9.726;2022-10-31T04:06:36;4.63;;;1.80;;
13051;SDS011;6592;47.484;9.726;2022-10-31T04:09:08;5.68;;;2.13;;
13051;SDS011;6592;47.484;9.726;2022-10-31T04:11:38;5.25;;;2.10;;
13051;SDS011;6592;47.484;9.726;2022-10-31T04:14:12;3.95;;;1.95;;
13051;SDS011;6592;47.484;9.726;2022-10-31T04:16:42;5.07;;;2.05;;
13051;SDS011;6592;47.484;9.726;2022-10-31T04:19:12;5.60;;;2.10;;
13051;SDS011;6592;47.484;9.726;2022-10-31T04:21:44;3.85;;;1.60;;
13051;SDS011;6592;47.484;9.726;2022-10-31T04:24:15;6.47;;;1.75;;
13051;SDS011;6592;47.484;9.726;2022-10-31T04:26:45;5.40;;;2.03;;
13051;SDS011;6592;47.484;9.726;2022-10-31T04:29:13;5.22;;;2.22;;
13051;SDS011;6592;47.484;9.726;2022-10-31T04:31:42;5.93;;;2.00;;
13051;SDS011;6592;47.484;9.726;2022-10-31T04:34:10;4.07;;;1.98;;
13051;SDS011;6592;47.484;9.726;2022-10-31T04:36:38;4.65;;;1.80;;
13051;SDS011;6592;47.484;9.726;2022-10-31T04:39:08;4.00;;;1.92;;
13051;SDS011;6592;47.484;9.726;2022-10-31T04:41:36;6.03;;;2.50;;
13051;SDS011;6592;47.484;9.726;2022-10-31T04:44:05;4.43;;;2.00;;
13051;SDS011;6592;47.484;9.726;2022-10-31T04:46:34;4.20;;;2.00;;
13051;SDS011;6592;47.484;9.726;2022-10-31T04:49:02;6.82;;;2.20;;
13051;SDS011;6592;47.484;9.726;2022-10-31T04:51:31;5.32;;;2.03;;
13051;SDS011;6592;47.484;9.726;2022-10-31T04:54:02;9.32;;;2.35;;
13051;SDS011;6592;47.484;9.726;2022-10-31T04:56:33;4.82;;;2.10;;
13051;SDS011;6592;47.484;9.726;2022-10-31T04:59:01;5.72;;;2.35;;
13051;SDS011;6592;47.484;9.726;2022-10-31T05:01:30;6.13;;;2.10;;
13051;SDS011;6592;47.484;9.726;2022-10-31T05:03:59;6.68;;;2.28;;
13051;SDS011;6592;47.484;9.726;2022-10-31T05:06:28;5.55;;;2.13;;
13051;SDS011;6592;47.484;9.726;2022-10-31T05:08:58;5.13;;;1.95;;
13051;SDS011;6592;47.484;9.726;2022-10-31T05:11:27;6.00;;;2.50;;
13051;SDS011;6592;47.484;9.726;2022-10-31T05:13:57;8.25;;;2.28;;
13051;SDS011;6592;47.484;9.726;2022-10-31T05:16:26;6.93;;;1.90;;
13051;SDS011;6592;47.484;9.726;2022-10-31T05:18:56;5.50;;;2.05;;
13051;SDS011;6592;47.484;9.726;2022-10-31T05:21:24;4.95;;;1.98;;
13051;SDS011;6592;47.484;9.726;2022-10-31T05:23:54;5.05;;;2.00;;
13051;SDS011;6592;47.484;9.726;2022-10-31T05:26:24;5.22;;;1.83;;
13051;SDS011;6592;47.484;9.726;2022-10-31T05:28:53;4.55;;;2.00;;
13051;SDS011;6592;47.484;9.726;2022-10-31T05:31:23;4.70;;;2.22;;
13051;SDS011;6592;47.484;9.726;2022-10-31T05:33:54;6.80;;;1.98;;
13051;SDS011;6592;47.484;9.726;2022-10-31T05:36:23;4.65;;;2.05;;
13051;SDS011;6592;47.484;9.726;2022-10-31T05:38:52;5.70;;;2.33;;
13051;SDS011;6592;47.484;9.726;2022-10-31T05:41:20;6.10;;;2.22;;
13051;SDS011;6592;47.484;9.726;2022-10-31T05:43:48;6.28;;;1.85;;
13051;SDS011;6592;47.484;9.726;2022-10-31T05:46:17;3.55;;;1.67;;
13051;SDS011;6592;47.484;9.726;2022-10-31T05:48:47;5.05;;;2.13;;
13051;SDS011;6592;47.484;9.726;2022-10-31T05:51:16;4.18;;;2.10;;
13051;SDS011;6592;47.484;9.726;2022-10-31T05:53:45;5.60;;;2.17;;
13051;SDS011;6592;47.484;9.726;2022-10-31T05:56:14;5.25;;;2.70;;
13051;SDS011;6592;47.484;9.726;2022-10-31T05:58:42;7.25;;;2.53;;
13051;SDS011;6592;47.484;9.726;2022-10-31T06:01:13;8.23;;;3.10;;
13051;SDS011;6592;47.484;9.726;2022-10-31T06:03:42;5.72;;;2.53;;
13051;SDS011;6592;47.484;9.726;2022-10-31T06:06:15;6.00;;;2.45;;
13051;SDS011;6592;47.484;9.726;2022-10-31T06:08:44;9.63;;;2.95;;
13051;SDS011;6592;47.484;9.726;2022-10-31T06:11:12;4.45;;;2.03;;
13051;SDS011;6592;47.484;9.726;2022-10-31T06:13:41;5.45;;;2.08;;
13051;SDS011;6592;47.484;9.726;2022-10-31T06:16:09;5.95;;;2.25;;
13051;SDS011;6592;47.484;9.726;2022-10-31T06:18:38;6.10;;;2.78;;
13051;SDS011;6592;47.484;9.726;2022-10-31T06:21:07;4.95;;;2.67;;
13051;SDS011;6592;47.484;9.726;2022-10-31T06:23:41;4.47;;;2.33;;
13051;SDS011;6592;47.484;9.726;2022-10-31T06:26:10;4.40;;;2.45;;
13051;SDS011;6592;47.484;9.726;2022-10-31T06:28:39;5.30;;;2.45;;
13051;SDS011;6592;47.484;9.726;2022-10-31T06:31:07;7.25;;;3.05;;
13051;SDS011;6592;47.484;9.726;2022-10-31T06:33:36;7.00;;;3.28;;
13051;SDS011;6592;47.484;9.726;2022-10-31T06:36:06;6.93;;;3.03;;
13051;SDS011;6592;47.484;9.726;2022-10-31T06:38:35;10.13;;;3.50;;
13051;SDS011;6592;47.484;9.726;2022-10-31T06:41:08;7.50;;;3.75;;
13051;SDS011;6592;47.484;9.726;2022-10-31T06:43:36;9.90;;;3.85;;
13051;SDS011;6592;47.484;9.726;2022-10-31T06:46:05;8.90;;;3.88;;
13051;SDS011;6592;47.484;9.726;2022-10-31T06:48:34;12.65;;;3.70;;
13051;SDS011;6592;47.484;9.726;2022-10-31T06:51:03;9.98;;;4.28;;
13051;SDS011;6592;47.484;9.726;2022-10-31T06:53:46;10.48;;;3.55;;
13051;SDS011;6592;47.484;9.726;2022-10-31T06:56:20;9.15;;;4.30;;
13051;SDS011;6592;47.484;9.726;2022-10-31T06:58:49;8.30;;;4.25;;
13051;SDS011;6592;47.484;9.726;2022-10-31T07:01:17;10.15;;;4.80;;
13051;SDS011;6592;47.484;9.726;2022-10-31T07:03:46;8.50;;;4.72;;
13051;SDS011;6592;47.484;9.726;2022-10-31T07:06:16;12.77;;;4.88;;
13051;SDS011;6592;47.484;9.726;2022-10-31T07:08:46;14.57;;;5.22;;
13051;SDS011;6592;47.484;9.726;2022-10-31T07:11:15;9.25;;;4.50;;
13051;SDS011;6592;47.484;9.726;2022-10-31T07:13:45;9.63;;;4.57;;
13051;SDS011;6592;47.484;9.726;2022-10-31T07:16:15;7.57;;;3.42;;
13051;SDS011;6592;47.484;9.726;2022-10-31T07:18:43;8.38;;;4.57;;
13051;SDS011;6592;47.484;9.726;2022-10-31T07:21:17;7.60;;;4.32;;
13051;SDS011;6592;47.484;9.726;2022-10-31T07:23:47;8.15;;;4.13;;
13051;SDS011;6592;47.484;9.726;2022-10-31T07:26:16;10.35;;;3.92;;
13051;SDS011;6592;47.484;9.726;2022-10-31T07:28:46;7.88;;;4.07;;
13051;SDS011;6592;47.484;9.726;2022-10-31T07:31:14;8.05;;;3.97;;
13051;SDS011;6592;47.484;9.726;2022-10-31T07:33:43;6.85;;;3.58;;
13051;SDS011;6592;47.484;9.726;2022-10-31T07:36:11;6.32;;;3.75;;
13051;SDS011;6592;47.484;9.726;2022-10-31T07:38:39;7.50;;;3.70;;
13051;SDS011;6592;47.484;9.726;2022-10-31T07:41:07;8.13;;;3.83;;
13051;SDS011;6592;47.484;9.726;2022-10-31T07:43:37;7.30;;;4.05;;
13051;SDS011;6592;47.484;9.726;2022-10-31T07:46:13;8.40;;;3.78;;
13051;SDS011;6592;47.484;9.726;2022-10-31T07:48:42;8.90;;;4.13;;
13051;SDS011;6592;47.484;9.726;2022-10-31T07:51:11;8.23;;;4.15;;
13051;SDS011;6592;47.484;9.726;2022-10-31T07:53:40;6.72;;;3.67;;
13051;SDS011;6592;47.484;9.726;2022-10-31T07:56:08;6.32;;;3.88;;
13051;SDS011;6592;47.484;9.726;2022-10-31T07:58:38;9.68;;;4.10;;
13051;SDS011;6592;47.484;9.726;2022-10-31T08:01:06;7.15;;;4.07;;
13051;SDS011;6592;47.484;9.726;2022-10-31T08:03:36;7.70;;;4.10;;
13051;SDS011;6592;47.484;9.726;2022-10-31T08:06:04;7.95;;;4.30;;
13051;SDS011;6592;47.484;9.726;2022-10-31T08:08:33;8.95;;;4.07;;
13051;SDS011;6592;47.484;9.726;2022-10-31T08:11:03;7.50;;;4.50;;
13051;SDS011;6592;47.484;9.726;2022-10-31T08:13:32;8.75;;;4.60;;
13051;SDS011;6592;47.484;9.726;2022-10-31T08:16:00;8.85;;;4.07;;
13051;SDS011;6592;47.484;9.726;2022-10-31T08:18:30;9.77;;;4.80;;
13051;SDS011;6592;47.484;9.726;2022-10-31T08:20:59;10.90;;;4.80;;
13051;SDS011;6592;47.484;9.726;2022-10-31T08:23:28;7.68;;;4.55;;
13051;SDS011;6592;47.484;9.726;2022-10-31T08:25:57;9.65;;;4.97;;
13051;SDS011;6592;47.484;9.726;2022-10-31T08:28:25;12.02;;;5.32;;
13051;SDS011;6592;47.484;9.726;2022-10-31T08:30:53;11.02;;;5.07;;
13051;SDS011;6592;47.484;9.726;2022-10-31T08:33:21;10.20;;;5.07;;
13051;SDS011;6592;47.484;9.726;2022-10-31T08:35:49;8.93;;;4.72;;
13051;SDS011;6592;47.484;9.726;2022-10-31T08:38:19;8.98;;;4.63;;
13051;SDS011;6592;47.484;9.726;2022-10-31T08:40:48;9.23;;;4.78;;
13051;SDS011;6592;47.484;9.726;2022-10-31T08:43:16;9.52;;;5.05;;
13051;SDS011;6592;47.484;9.726;2022-10-31T08:45:47;9.65;;;5.30;;
13051;SDS011;6592;47.484;9.726;2022-10-31T08:48:16;9.57;;;4.88;;
13051;SDS011;6592;47.484;9.726;2022-10-31T08:50:45;10.82;;;5.05;;
13051;SDS011;6592;47.484;9.726;2022-10-31T08:53:14;11.43;;;5.78;;
13051;SDS011;6592;47.484;9.726;2022-10-31T08:55:45;9.18;;;4.85;;
13051;SDS011;6592;47.484;9.726;2022-10-31T08:58:14;10.82;;;5.43;;
13051;SDS011;6592;47.484;9.726;2022-10-31T09:00:44;10.13;;;5.30;;
13051;SDS011;6592;47.484;9.726;2022-10-31T09:03:14;10.23;;;5.03;;
13051;SDS011;6592;47.484;9.726;2022-10-31T09:05:43;9.57;;;5.28;;
13051;SDS011;6592;47.484;9.726;2022-10-31T09:08:12;10.98;;;5.25;;
13051;SDS011;6592;47.484;9.726;2022-10-31T09:10:42;10.95;;;5.57;;
13051;SDS011;6592;47.484;9.726;2022-10-31T09:13:13;14.00;;;6.00;;
13051;SDS011;6592;47.484;9.726;2022-10-31T09:15:43;10.82;;;5.70;;
13051;SDS011;6592;47.484;9.726;2022-10-31T09:18:15;10.77;;;5.90;;
13051;SDS011;6592;47.484;9.726;2022-10-31T09:20:45;11.32;;;5.93;;
13051;SDS011;6592;47.484;9.726;2022-10-31T09:23:14;11.07;;;5.95;;
13051;SDS011;6592;47.484;9.726;2022-10-31T09:25:45;11.55;;;6.03;;
13051;SDS011;6592;47.484;9.726;2022-10-31T09:28:17;9.40;;;5.20;;
13051;SDS011;6592;47.484;9.726;2022-10-31T09:30:46;13.40;;;6.10;;
13051;SDS011;6592;47.484;9.726;2022-10-31T09:33:16;9.65;;;5.78;;
13051;SDS011;6592;47.484;9.726;2022-10-31T09:35:45;11.07;;;6.07;;
13051;SDS011;6592;47.484;9.726;2022-10-31T09:38:14;11.60;;;5.78;;
13051;SDS011;6592;47.484;9.726;2022-10-31T09:40:49;11.52;;;5.63;;
13051;SDS011;6592;47.484;9.726;2022-10-31T09:43:25;10.43;;;5.40;;
13051;SDS011;6592;47.484;9.726;2022-10-31T09:46:07;11.23;;;5.63;;
13051;SDS011;6592;47.484;9.726;2022-10-31T09:48:50;13.38;;;5.68;;
13051;SDS011;6592;47.484;9.726;2022-10-31T09:51:33;10.88;;;5.80;;
13051;SDS011;6592;47.484;9.726;2022-10-31T09:54:05;12.95;;;6.25;;
13051;SDS011;6592;47.484;9.726;2022-10-31T09:56:39;11.60;;;6.53;;
13051;SDS011;6592;47.484;9.726;2022-10-31T10:01:42;9.85;;;5.53;;
13051;SDS011;6592;47.484;9.726;2022-10-31T10:04:19;10.45;;;6.30;;
13051;SDS011;6592;47.484;9.726;2022-10-31T10:07:02;13.68;;;6.30;;
13051;SDS011;6592;47.484;9.726;2022-10-31T10:09:35;13.80;;;6.18;;
13051;SDS011;6592;47.484;9.726;2022-10-31T10:12:08;12.13;;;6.15;;
13051;SDS011;6592;47.484;9.726;2022-10-31T10:17:38;10.55;;;6.35;;
13051;SDS011;6592;47.484;9.726;2022-10-31T10:20:16;11.35;;;6.20;;
13051;SDS011;6592;47.484;9.726;2022-10-31T10:22:55;10.77;;;5.55;;
13051;SDS011;6592;47.484;9.726;2022-10-31T10:25:37;13.90;;;6.57;;
13051;SDS011;6592;47.484;9.726;2022-10-31T10:28:11;10.07;;;6.23;;
13051;SDS011;6592;47.484;9.726;2022-10-31T10:30:48;11.63;;;5.93;;
13051;SDS011;6592;47.484;9.726;2022-10-31T10:33:22;8.77;;;5.63;;
13051;SDS011;6592;47.484;9.726;2022-10-31T10:35:55;11.43;;;6.57;;
13051;SDS011;6592;47.484;9.726;2022-10-31T10:38:33;10.38;;;5.82;;
13051;SDS011;6592;47.484;9.726;2022-10-31T10:41:06;10.85;;;5.85;;
13051;SDS011;6592;47.484;9.726;2022-10-31T10:43:43;8.63;;;5.50;;
13051;SDS011;6592;47.484;9.726;2022-10-31T10:49:08;8.60;;;5.07;;
13051;SDS011;6592;47.484;9.726;2022-10-31T10:51:45;9.50;;;5.60;;
13051;SDS011;6592;47.484;9.726;2022-10-31T10:57:32;10.32;;;5.75;;
13051;SDS011;6592;47.484;9.726;2022-10-31T11:00:18;9.35;;;5.25;;
13051;SDS011;6592;47.484;9.726;2022-10-31T11:02:49;8.93;;;5.50;;
13051;SDS011;6592;47.484;9.726;2022-10-31T11:05:23;11.40;;;5.68;;
13051;SDS011;6592;47.484;9.726;2022-10-31T11:07:53;8.05;;;5.00;;
13051;SDS011;6592;47.484;9.726;2022-10-31T11:10:22;8.93;;;5.50;;
13051;SDS011;6592;47.484;9.726;2022-10-31T11:13:02;8.63;;;5.13;;
13051;SDS011;6592;47.484;9.726;2022-10-31T11:15:36;9.40;;;5.85;;
13051;SDS011;6592;47.484;9.726;2022-10-31T11:18:18;9.48;;;5.97;;
13051;SDS011;6592;47.484;9.726;2022-10-31T11:20:50;9.10;;;5.80;;
13051;SDS011;6592;47.484;9.726;2022-10-31T11:23:20;9.40;;;5.82;;
13051;SDS011;6592;47.484;9.726;2022-10-31T11:25:51;8.10;;;5.50;;
13051;SDS011;6592;47.484;9.726;2022-10-31T11:28:23;8.85;;;5.35;;
13051;SDS011;6592;47.484;9.726;2022-10-31T11:30:54;8.98;;;5.55;;
13051;SDS011;6592;47.484;9.726;2022-10-31T11:33:26;9.73;;;5.60;;
13051;SDS011;6592;47.484;9.726;2022-10-31T11:35:58;9.07;;;5.65;;
13051;SDS011;6592;47.484;9.726;2022-10-31T11:38:31;11.27;;;6.55;;
13051;SDS011;6592;47.484;9.726;2022-10-31T11:41:05;9.00;;;5.50;;
13051;SDS011;6592;47.484;9.726;2022-10-31T11:43:45;8.30;;;5.88;;
13051;SDS011;6592;47.484;9.726;2022-10-31T11:46:20;9.23;;;5.32;;
13051;SDS011;6592;47.484;9.726;2022-10-31T11:48:52;7.70;;;5.80;;
13051;SDS011;6592;47.484;9.726;2022-10-31T11:51:23;10.18;;;6.82;;
13051;SDS011;6592;47.484;9.726;2022-10-31T11:53:54;8.25;;;5.88;;
13051;SDS011;6592;47.484;9.726;2022-10-31T11:56:37;9.05;;;6.65;;
13051;SDS011;6592;47.484;9.726;2022-10-31T11:59:14;8.70;;;6.18;;
13051;SDS011;6592;47.484;9.726;2022-10-31T12:01:48;11.90;;;6.63;;
13051;SDS011;6592;47.484;9.726;2022-10-31T12:04:18;10.18;;;6.45;;
13051;SDS011;6592;47.484;9.726;2022-10-31T12:06:51;10.48;;;6.45;;
13051;SDS011;6592;47.484;9.726;2022-10-31T12:09:21;10.48;;;7.05;;
13051;SDS011;6592;47.484;9.726;2022-10-31T12:11:54;11.02;;;7.00;;
13051;SDS011;6592;47.484;9.726;2022-10-31T12:14:33;11.15;;;6.97;;
13051;SDS011;6592;47.484;9.726;2022-10-31T12:17:11;12.30;;;6.90;;
13051;SDS011;6592;47.484;9.726;2022-10-31T12:19:42;11.30;;;6.68;;
13051;SDS011;6592;47.484;9.726;2022-10-31T12:22:23;11.48;;;6.60;;
13051;SDS011;6592;47.484;9.726;2022-10-31T12:25:04;14.32;;;7.97;;
13051;SDS011;6592;47.484;9.726;2022-10-31T12:27:53;11.65;;;6.72;;
13051;SDS011;6592;47.484;9.726;2022-10-31T12:30:30;12.05;;;7.35;;
13051;SDS011;6592;47.484;9.726;2022-10-31T12:33:17;12.68;;;6.82;;
13051;SDS011;6592;47.484;9.726;2022-10-31T12:35:55;10.43;;;6.72;;
13051;SDS011;6592;47.484;9.726;2022-10-31T12:38:44;11.38;;;7.32;;
13051;SDS011;6592;47.484;9.726;2022-10-31T12:41:26;12.07;;;6.90;;
13051;SDS011;6592;47.484;9.726;2022-10-31T12:44:06;11.32;;;6.60;;
13051;SDS011;6592;47.484;9.726;2022-10-31T12:46:46;10.85;;;7.22;;
13051;SDS011;6592;47.484;9.726;2022-10-31T12:49:31;11.10;;;7.47;;
13051;SDS011;6592;47.484;9.726;2022-10-31T12:52:15;12.57;;;7.05;;
13051;SDS011;6592;47.484;9.726;2022-10-31T12:55:02;10.73;;;6.80;;
13051;SDS011;6592;47.484;9.726;2022-10-31T12:57:42;11.68;;;7.43;;
13051;SDS011;6592;47.484;9.726;2022-10-31T13:00:15;11.88;;;7.15;;
13051;SDS011;6592;47.484;9.726;2022-10-31T13:02:48;10.13;;;6.45;;
13051;SDS011;6592;47.484;9.726;2022-10-31T13:05:24;11.10;;;6.72;;
13051;SDS011;6592;47.484;9.726;2022-10-31T13:07:58;13.98;;;7.22;;
13051;SDS011;6592;47.484;9.726;2022-10-31T13:10:31;11.30;;;6.57;;
13051;SDS011;6592;47.484;9.726;2022-10-31T13:13:06;11.85;;;6.82;;
13051;SDS011;6592;47.484;9.726;2022-10-31T13:15:41;11.73;;;7.30;;
13051;SDS011;6592;47.484;9.726;2022-10-31T13:18:21;10.98;;;7.13;;
13051;SDS011;6592;47.484;9.726;2022-10-31T13:20:57;12.23;;;7.13;;
13051;SDS011;6592;47.484;9.726;2022-10-31T13:23:27;12.90;;;7.05;;
13051;SDS011;6592;47.484;9.726;2022-10-31T13:26:20;10.85;;;6.70;;
13051;SDS011;6592;47.484;9.726;2022-10-31T13:29:00;10.00;;;6.78;;
13051;SDS011;6592;47.484;9.726;2022-10-31T13:31:39;11.43;;;6.25;;
13051;SDS011;6592;47.484;9.726;2022-10-31T13:34:10;10.13;;;6.25;;
13051;SDS011;6592;47.484;9.726;2022-10-31T13:36:58;9.65;;;6.35;;
13051;SDS011;6592;47.484;9.726;2022-10-31T13:39:34;9.63;;;6.55;;
13051;SDS011;6592;47.484;9.726;2022-10-31T13:44:43;9.75;;;6.40;;
13051;SDS011;6592;47.484;9.726;2022-10-31T13:47:20;8.77;;;6.78;;
13051;SDS011;6592;47.484;9.726;2022-10-31T13:49:51;8.30;;;6.10;;
13051;SDS011;6592;47.484;9.726;2022-10-31T13:52:33;8.30;;;6.47;;
13051;SDS011;6592;47.484;9.726;2022-10-31T13:55:01;10.38;;;6.05;;
13051;SDS011;6592;47.484;9.726;2022-10-31T13:57:31;8.52;;;6.40;;
13051;SDS011;6592;47.484;9.726;2022-10-31T14:00:04;10.18;;;6.75;;
13051;SDS011;6592;47.484;9.726;2022-10-31T14:02:35;10.52;;;7.38;;
13051;SDS011;6592;47.484;9.726;2022-10-31T14:05:05;10.98;;;7.50;;
13051;SDS011;6592;47.484;9.726;2022-10-31T14:07:48;10.93;;;7.57;;
13051;SDS011;6592;47.484;9.726;2022-10-31T14:10:24;11.05;;;7.70;;
13051;SDS011;6592;47.484;9.726;2022-10-31T14:13:03;10.43;;;7.55;;
13051;SDS011;6592;47.484;9.726;2022-10-31T14:15:42;11.60;;;7.45;;
13051;SDS011;6592;47.484;9.726;2022-10-31T14:18:28;9.80;;;7.22;;
13051;SDS011;6592;47.484;9.726;2022-10-31T14:20:59;10.35;;;6.68;;
13051;SDS011;6592;47.484;9.726;2022-10-31T14:23:34;11.05;;;6.80;;
13051;SDS011;6592;47.484;9.726;2022-10-31T14:26:20;10.35;;;7.28;;
13051;SDS011;6592;47.484;9.726;2022-10-31T14:29:00;9.45;;;7.15;;
13051;SDS011;6592;47.484;9.726;2022-10-31T14:31:34;10.18;;;7.00;;
13051;SDS011;6592;47.484;9.726;2022-10-31T14:34:07;10.43;;;7.03;;
13051;SDS011;6592;47.484;9.726;2022-10-31T14:39:47;10.00;;;6.95;;
13051;SDS011;6592;47.484;9.726;2022-10-31T14:42:32;12.93;;;6.72;;
13051;SDS011;6592;47.484;9.726;2022-10-31T14:45:14;10.32;;;6.75;;
13051;SDS011;6592;47.484;9.726;2022-10-31T14:47:57;9.57;;;7.65;;
13051;SDS011;6592;47.484;9.726;2022-10-31T14:50:44;10.57;;;8.02;;
13051;SDS011;6592;47.484;9.726;2022-10-31T14:53:18;10.05;;;7.35;;
13051;SDS011;6592;47.484;9.726;2022-10-31T14:55:51;11.70;;;7.50;;
13051;SDS011;6592;47.484;9.726;2022-10-31T14:58:22;10.13;;;7.65;;
13051;SDS011;6592;47.484;9.726;2022-10-31T15:00:58;9.90;;;7.55;;
13051;SDS011;6592;47.484;9.726;2022-10-31T15:03:28;10.80;;;7.55;;
13051;SDS011;6592;47.484;9.726;2022-10-31T15:06:01;10.00;;;7.22;;
13051;SDS011;6592;47.484;9.726;2022-10-31T15:08:34;11.70;;;7.45;;
13051;SDS011;6592;47.484;9.726;2022-10-31T15:11:11;11.48;;;8.05;;
13051;SDS011;6592;47.484;9.726;2022-10-31T15:13:42;11.88;;;7.95;;
13051;SDS011;6592;47.484;9.726;2022-10-31T15:16:12;13.90;;;7.72;;
13051;SDS011;6592;47.484;9.726;2022-10-31T15:18:47;11.88;;;8.00;;
13051;SDS011;6592;47.484;9.726;2022-10-31T15:21:21;10.82;;;7.78;;
13051;SDS011;6592;47.484;9.726;2022-10-31T15:23:52;10.80;;;7.45;;
13051;SDS011;6592;47.484;9.726;2022-10-31T15:26:24;11.63;;;7.87;;
13051;SDS011;6592;47.484;9.726;2022-10-31T15:28:57;11.57;;;7.97;;
13051;SDS011;6592;47.484;9.726;2022-10-31T15:31:28;11.05;;;7.70;;
13051;SDS011;6592;47.484;9.726;2022-10-31T15:33:58;11.40;;;7.75;;
13051;SDS011;6592;47.484;9.726;2022-10-31T15:36:29;12.43;;;8.50;;
13051;SDS011;6592;47.484;9.726;2022-10-31T15:39:03;11.82;;;7.53;;
13051;SDS011;6592;47.484;9.726;2022-10-31T15:41:35;12.90;;;7.72;;
13051;SDS011;6592;47.484;9.726;2022-10-31T15:44:11;12.35;;;7.80;;
13051;SDS011;6592;47.484;9.726;2022-10-31T15:46:42;15.20;;;8.15;;
13051;SDS011;6592;47.484;9.726;2022-10-31T15:49:16;12.93;;;7.82;;
13051;SDS011;6592;47.484;9.726;2022-10-31T15:51:54;12.68;;;7.70;;
13051;SDS011;6592;47.484;9.726;2022-10-31T15:54:26;12.55;;;8.52;;
13051;SDS011;6592;47.484;9.726;2022-10-31T15:56:57;14.10;;;8.40;;
13051;SDS011;6592;47.484;9.726;2022-10-31T15:59:26;16.05;;;8.43;;
13051;SDS011;6592;47.484;9.726;2022-10-31T16:02:00;14.50;;;8.27;;